Time;durP1;ratioP1;P1;durP2;ratioP2;P2;SDS_P1;SDS_P2;PMS_P1;PMS_P2;Temp;Humidity;BMP_temperature;BMP_pressure;BME280_temperature;BME280_humidity;BME280_pressure;Samples;Min_cycle;Max_cycle;Signal;HPM_P1;HPM_P2
2022/02/19 00:00:48;;;;;;;8.55;2.47;;;;;;;;;;5192301;27;20272;-77
2022/02/19 00:03:14;;;;;;;10.25;2.85;;;;;;;;;;5191524;27;20192;-75
2022/02/19 00:05:40;;;;;;;7.30;1.88;;;;;;;;;;5169302;27;20210;-74
2022/02/19 00:08:06;;;;;;;25.83;2.70;;;;;;;;;;5105314;27;20210;-75
2022/02/19 00:10:33;;;;;;;21.27;2.20;;;;;;;;;;5145325;27;20184;-77
2022/02/19 00:12:59;;;;;;;8.15;1.52;;;;;;;;;;5101398;27;20215;-76
2022/02/19 00:15:25;;;;;;;11.02;2.10;;;;;;;;;;5070261;28;20247;-76
2022/02/19 00:20:30;;;;;;;9.75;1.70;;;;;;;;;;5192933;27;20489;-77
2022/02/19 00:22:57;;;;;;;20.02;2.72;;;;;;;;;;5169021;27;20553;-75
2022/02/19 00:25:23;;;;;;;13.88;1.92;;;;;;;;;;5185012;27;20258;-75
2022/02/19 00:27:49;;;;;;;8.98;2.55;;;;;;;;;;5145992;27;20610;-74
2022/02/19 00:30:15;;;;;;;13.55;2.20;;;;;;;;;;5103025;27;20656;-76
2022/02/19 00:32:41;;;;;;;12.30;2.30;;;;;;;;;;5084182;28;20237;-76
2022/02/19 00:35:07;;;;;;;16.25;2.05;;;;;;;;;;5057768;28;20217;-76
2022/02/19 00:37:33;;;;;;;9.25;2.72;;;;;;;;;;5031192;28;20190;-75
2022/02/19 00:40:00;;;;;;;20.13;3.33;;;;;;;;;;5013211;28;20272;-74
2022/02/19 00:45:03;;;;;;;9.10;2.20;;;;;;;;;;5188759;27;20498;-76
2022/02/19 00:47:29;;;;;;;6.70;2.30;;;;;;;;;;5187829;27;20215;-77
2022/02/19 00:49:55;;;;;;;22.52;2.90;;;;;;;;;;5172170;27;20189;-75
2022/02/19 00:52:21;;;;;;;8.73;2.13;;;;;;;;;;5191534;27;20311;-75
2022/02/19 00:54:47;;;;;;;16.00;3.10;;;;;;;;;;5137403;27;20528;-74
2022/02/19 00:57:13;;;;;;;10.00;2.80;;;;;;;;;;5119008;28;20438;-77
2022/02/19 00:59:38;;;;;;;4.70;1.90;;;;;;;;;;5095011;28;20191;-75
2022/02/19 01:02:05;;;;;;;8.43;2.17;;;;;;;;;;5105912;28;20441;-77
2022/02/19 01:04:31;;;;;;;9.20;2.40;;;;;;;;;;5076322;27;20889;-75
2022/02/19 01:10:14;;;;;;;16.33;2.17;;;;;;;;;;5150968;27;20328;-75
2022/02/19 01:12:40;;;;;;;18.13;2.65;;;;;;;;;;5131000;27;20547;-75
2022/02/19 01:15:06;;;;;;;13.50;2.30;;;;;;;;;;5145504;27;20267;-76
2022/02/19 01:17:32;;;;;;;15.50;1.85;;;;;;;;;;5128935;28;20193;-75
2022/02/19 01:19:58;;;;;;;12.60;1.90;;;;;;;;;;5085709;28;20527;-76
2022/02/19 01:22:24;;;;;;;4.45;1.50;;;;;;;;;;5076519;28;20198;-76
2022/02/19 01:24:50;;;;;;;9.55;2.30;;;;;;;;;;5083098;28;20285;-75
2022/02/19 01:27:16;;;;;;;12.50;2.35;;;;;;;;;;5021805;28;20210;-76
2022/02/19 01:29:42;;;;;;;9.43;2.50;;;;;;;;;;5036341;28;20616;-75
2022/02/19 01:34:47;;;;;;;20.80;2.42;;;;;;;;;;5191034;27;20486;-78
2022/02/19 01:37:12;;;;;;;6.60;2.57;;;;;;;;;;5170778;27;20626;-76
2022/02/19 01:39:38;;;;;;;14.23;3.53;;;;;;;;;;5192299;27;20493;-77
2022/02/19 01:42:05;;;;;;;19.05;2.50;;;;;;;;;;5191520;27;20815;-75
2022/02/19 01:44:35;;;;;;;3.25;1.45;;;;;;;;;;5161636;27;20201;-76
2022/02/19 01:47:02;;;;;;;15.00;2.70;;;;;;;;;;5141614;27;20191;-76
2022/02/19 01:49:28;;;;;;;12.00;3.55;;;;;;;;;;5129580;27;20191;-76
2022/02/19 01:51:54;;;;;;;15.50;2.33;;;;;;;;;;5121296;27;20203;-76
2022/02/19 01:54:20;;;;;;;7.20;1.40;;;;;;;;;;5100779;28;20571;-76
2022/02/19 01:56:46;;;;;;;4.30;1.60;;;;;;;;;;5033228;28;20249;-78
2022/02/19 02:00:27;;;;;;;10.55;1.60;;;;;;;;;;5193124;27;20488;-76
2022/02/19 02:02:56;;;;;;;5.70;1.55;;;;;;;;;;5187812;27;20226;-79
2022/02/19 02:05:22;;;;;;;9.95;1.60;;;;;;;;;;5185176;27;20273;-77
2022/02/19 02:07:48;;;;;;;7.45;1.30;;;;;;;;;;5170618;27;20185;-77
2022/02/19 02:10:14;;;;;;;7.47;1.48;;;;;;;;;;5147119;27;20190;-77
2022/02/19 02:12:41;;;;;;;10.23;2.35;;;;;;;;;;5146357;27;20189;-76
2022/02/19 02:15:22;;;;;;;11.30;2.47;;;;;;;;;;5134203;27;20519;-77
2022/02/19 02:17:48;;;;;;;5.88;2.88;;;;;;;;;;4976820;28;20190;-78
2022/02/19 02:20:14;;;;;;;11.90;2.40;;;;;;;;;;4953666;28;20298;-78
2022/02/19 02:25:24;;;;;;;6.82;1.60;;;;;;;;;;5185908;27;20499;-77
2022/02/19 02:27:50;;;;;;;9.85;1.98;;;;;;;;;;5173757;27;20189;-77
2022/02/19 02:30:17;;;;;;;9.27;1.83;;;;;;;;;;5157536;27;20243;-75
2022/02/19 02:32:43;;;;;;;11.73;2.22;;;;;;;;;;5191349;27;20414;-76
2022/02/19 02:35:09;;;;;;;7.10;2.40;;;;;;;;;;5185920;27;20267;-79
2022/02/19 02:37:35;;;;;;;16.08;3.33;;;;;;;;;;5141798;27;20461;-77
2022/02/19 02:40:01;;;;;;;6.00;2.70;;;;;;;;;;5080924;27;20241;-76
2022/02/19 02:42:27;;;;;;;8.63;2.38;;;;;;;;;;5039709;28;20428;-75
2022/02/19 02:44:53;;;;;;;2.30;1.25;;;;;;;;;;4992853;28;20285;-76
2022/02/19 02:49:52;;;;;;;10.88;1.98;;;;;;;;;;5193054;27;20641;-76
2022/02/19 02:52:17;;;;;;;4.82;1.17;;;;;;;;;;5187834;27;20188;-76
2022/02/19 02:54:43;;;;;;;4.70;1.87;;;;;;;;;;5190681;27;20199;-74
2022/02/19 02:57:09;;;;;;;8.43;2.33;;;;;;;;;;5170531;27;20915;-75
2022/02/19 02:59:36;;;;;;;4.13;1.40;;;;;;;;;;5091083;28;20434;-75
2022/02/19 03:02:03;;;;;;;9.88;2.90;;;;;;;;;;5067067;28;20591;-77
2022/02/19 03:04:29;;;;;;;9.38;1.83;;;;;;;;;;5104177;28;20183;-76
2022/02/19 03:06:55;;;;;;;14.15;3.75;;;;;;;;;;5097294;28;20257;-76
2022/02/19 03:09:21;;;;;;;9.93;2.30;;;;;;;;;;5057365;28;20577;-75
2022/02/19 03:14:24;;;;;;;16.52;2.97;;;;;;;;;;5193210;27;20319;-76
2022/02/19 03:16:50;;;;;;;5.55;2.33;;;;;;;;;;5152771;27;20208;-74
2022/02/19 03:19:16;;;;;;;5.73;1.63;;;;;;;;;;5151192;27;20649;-76
2022/02/19 03:21:42;;;;;;;7.57;2.00;;;;;;;;;;5170710;27;20427;-75
2022/02/19 03:24:08;;;;;;;7.43;2.10;;;;;;;;;;5087662;28;20501;-75
2022/02/19 03:26:34;;;;;;;2.43;1.00;;;;;;;;;;5034334;28;20211;-77
2022/02/19 03:29:00;;;;;;;13.60;1.80;;;;;;;;;;5063963;28;20462;-75
2022/02/19 03:31:26;;;;;;;3.08;1.42;;;;;;;;;;5005781;28;20450;-76
2022/02/19 03:33:52;;;;;;;9.77;1.60;;;;;;;;;;4946404;28;20292;-77
2022/02/19 03:39:35;;;;;;;2.55;1.00;;;;;;;;;;5192855;27;20488;-75
2022/02/19 03:42:01;;;;;;;5.80;2.00;;;;;;;;;;5187675;27;20542;-75
2022/02/19 03:44:27;;;;;;;18.77;2.08;;;;;;;;;;5192192;27;20193;-75
2022/02/19 03:46:53;;;;;;;5.05;1.35;;;;;;;;;;5171177;27;20209;-76
2022/02/19 03:49:19;;;;;;;2.90;1.30;;;;;;;;;;5110412;28;20192;-75
2022/02/19 03:51:45;;;;;;;6.93;1.48;;;;;;;;;;5081269;28;20800;-75
2022/02/19 03:54:11;;;;;;;5.25;1.42;;;;;;;;;;5063123;28;20224;-75
2022/02/19 03:56:38;;;;;;;5.37;1.20;;;;;;;;;;5062859;28;20242;-76
2022/02/19 03:59:04;;;;;;;6.20;0.90;;;;;;;;;;5028146;28;20968;-75
2022/02/19 04:04:16;;;;;;;5.32;1.50;;;;;;;;;;5193112;27;20480;-76
2022/02/19 04:06:42;;;;;;;11.52;1.92;;;;;;;;;;5169312;27;20205;-74
2022/02/19 04:09:08;;;;;;;10.48;1.55;;;;;;;;;;5170914;27;20216;-75
2022/02/19 04:11:34;;;;;;;7.40;1.47;;;;;;;;;;5170279;27;20197;-75
2022/02/19 04:13:59;;;;;;;7.57;1.60;;;;;;;;;;5123927;27;20900;-76
2022/02/19 04:16:25;;;;;;;6.13;1.43;;;;;;;;;;5084000;28;20222;-76
2022/02/19 04:18:51;;;;;;;8.83;1.20;;;;;;;;;;5108518;28;20436;-75
2022/02/19 04:21:17;;;;;;;9.23;2.20;;;;;;;;;;5131208;27;20959;-76
2022/02/19 04:23:43;;;;;;;3.25;1.55;;;;;;;;;;5138666;27;20502;-75
2022/02/19 04:29:42;;;;;;;8.88;2.13;;;;;;;;;;5192966;27;20476;-77
2022/02/19 04:32:09;;;;;;;8.67;1.97;;;;;;;;;;5170769;27;20200;-76
2022/02/19 04:34:35;;;;;;;2.83;1.35;;;;;;;;;;5187321;27;20491;-75
2022/02/19 04:37:01;;;;;;;5.15;2.00;;;;;;;;;;5149834;27;20748;-75
2022/02/19 04:39:27;;;;;;;5.35;1.45;;;;;;;;;;5078952;28;20530;-75
2022/02/19 04:41:53;;;;;;;9.60;2.13;;;;;;;;;;5105253;28;20192;-77
2022/02/19 04:44:19;;;;;;;7.60;1.15;;;;;;;;;;5113565;27;20196;-76
2022/02/19 04:46:45;;;;;;;3.95;1.35;;;;;;;;;;5143165;27;20224;-75
2022/02/19 04:49:11;;;;;;;14.47;1.60;;;;;;;;;;5038843;28;20221;-76
2022/02/19 04:54:55;;;;;;;5.20;1.10;;;;;;;;;;5189993;27;20765;-76
2022/02/19 04:57:21;;;;;;;8.47;3.33;;;;;;;;;;5170939;27;20633;-76
2022/02/19 04:59:47;;;;;;;5.10;2.03;;;;;;;;;;5172456;27;20780;-76
2022/02/19 05:02:13;;;;;;;4.75;1.25;;;;;;;;;;5191506;27;20563;-76
2022/02/19 05:04:39;;;;;;;9.30;2.30;;;;;;;;;;5161512;27;20198;-75
2022/02/19 05:07:05;;;;;;;6.70;1.57;;;;;;;;;;5125495;27;20425;-75
2022/02/19 05:09:31;;;;;;;9.60;1.47;;;;;;;;;;5163306;27;20803;-76
2022/02/19 05:11:57;;;;;;;5.70;1.80;;;;;;;;;;5185488;27;20418;-75
2022/02/19 05:14:24;;;;;;;6.10;1.73;;;;;;;;;;5135710;27;20221;-76
2022/02/19 05:20:10;;;;;;;10.80;1.85;;;;;;;;;;5192787;27;20476;-75
2022/02/19 05:22:36;;;;;;;8.10;2.00;;;;;;;;;;5187834;27;20540;-76
2022/02/19 05:25:02;;;;;;;10.25;2.20;;;;;;;;;;5187949;27;20215;-75
2022/02/19 05:27:28;;;;;;;7.47;1.80;;;;;;;;;;5170420;27;20184;-75
2022/02/19 05:29:54;;;;;;;12.07;2.40;;;;;;;;;;5119517;27;20561;-76
2022/02/19 05:32:20;;;;;;;9.30;1.50;;;;;;;;;;5039970;28;20443;-75
2022/02/19 05:34:46;;;;;;;23.20;2.10;;;;;;;;;;5002983;28;20480;-76
2022/02/19 05:37:13;;;;;;;11.32;1.63;;;;;;;;;;5040019;28;20623;-75
2022/02/19 05:39:38;;;;;;;9.85;1.77;;;;;;;;;;4963231;28;20726;-76
2022/02/19 05:44:21;;;;;;;10.73;1.95;;;;;;;;;;5151351;27;20317;-75
2022/02/19 05:46:47;;;;;;;5.93;2.10;;;;;;;;;;5112290;28;20219;-77
2022/02/19 05:49:13;;;;;;;6.53;1.40;;;;;;;;;;5110344;28;20437;-77
2022/02/19 05:51:39;;;;;;;2.92;1.70;;;;;;;;;;5105208;28;20436;-76
2022/02/19 05:54:05;;;;;;;8.77;2.00;;;;;;;;;;5000276;28;20198;-77
2022/02/19 05:56:31;;;;;;;6.40;2.53;;;;;;;;;;5045586;28;20226;-77
2022/02/19 05:58:57;;;;;;;7.78;1.50;;;;;;;;;;5054956;28;20196;-77
2022/02/19 06:01:23;;;;;;;22.17;2.90;;;;;;;;;;4994722;28;20263;-76
2022/02/19 06:03:49;;;;;;;8.57;1.52;;;;;;;;;;4966359;28;20271;-76
2022/02/19 06:06:14;;;;;;;6.97;1.63;;;;;;;;;;4939091;28;30001;-75
2022/02/19 06:10:16;;;;;;;8.02;1.50;;;;;;;;;;5193168;27;20474;-77
2022/02/19 06:12:42;;;;;;;7.27;1.70;;;;;;;;;;5187659;27;20192;-75
2022/02/19 06:15:09;;;;;;;4.23;1.80;;;;;;;;;;5144718;27;20969;-76
2022/02/19 06:17:35;;;;;;;12.52;1.60;;;;;;;;;;5118396;27;20432;-75
2022/02/19 06:20:01;;;;;;;9.70;1.63;;;;;;;;;;5094272;28;20192;-76
2022/02/19 06:22:27;;;;;;;9.60;1.45;;;;;;;;;;5085471;28;20280;-75
2022/02/19 06:24:53;;;;;;;18.55;2.33;;;;;;;;;;5088041;28;20200;-75
2022/02/19 06:27:19;;;;;;;17.47;2.37;;;;;;;;;;5077669;28;20226;-75
2022/02/19 06:29:45;;;;;;;10.05;2.20;;;;;;;;;;5061579;28;20477;-75
2022/02/19 06:34:59;;;;;;;6.03;2.67;;;;;;;;;;5189314;27;20495;-76
2022/02/19 06:37:25;;;;;;;8.37;1.70;;;;;;;;;;5187835;27;20188;-75
2022/02/19 06:39:51;;;;;;;4.67;1.83;;;;;;;;;;5192254;27;20482;-76
2022/02/19 06:42:17;;;;;;;14.35;3.50;;;;;;;;;;5191550;27;20462;-75
2022/02/19 06:44:43;;;;;;;4.73;2.07;;;;;;;;;;5138302;27;20238;-76
2022/02/19 06:47:09;;;;;;;4.45;2.40;;;;;;;;;;5087957;28;20439;-76
2022/02/19 06:49:35;;;;;;;8.90;2.40;;;;;;;;;;5090812;28;20215;-75
2022/02/19 06:52:01;;;;;;;7.53;2.35;;;;;;;;;;5098237;28;20436;-76
2022/02/19 06:54:27;;;;;;;4.90;1.67;;;;;;;;;;5120360;27;20222;-76
2022/02/19 07:00:40;;;;;;;6.18;1.73;;;;;;;;;;5192963;27;20488;-74
2022/02/19 07:03:06;;;;;;;10.63;2.67;;;;;;;;;;5187559;27;20186;-75
2022/02/19 07:05:32;;;;;;;8.40;2.00;;;;;;;;;;5183704;27;20258;-77
2022/02/19 07:07:58;;;;;;;10.03;1.80;;;;;;;;;;5170517;27;20501;-76
2022/02/19 07:10:24;;;;;;;10.52;1.90;;;;;;;;;;5119494;27;20793;-76
2022/02/19 07:12:50;;;;;;;7.68;3.20;;;;;;;;;;5088646;28;20187;-77
2022/02/19 07:15:20;;;;;;;12.63;1.73;;;;;;;;;;5103829;28;20307;-77
2022/02/19 07:17:51;;;;;;;6.72;2.30;;;;;;;;;;5100733;28;20435;-77
2022/02/19 07:20:17;;;;;;;10.32;1.90;;;;;;;;;;5116045;28;20225;-76
2022/02/19 07:25:22;;;;;;;8.02;1.70;;;;;;;;;;5185635;27;20870;-76
2022/02/19 07:27:49;;;;;;;10.52;2.13;;;;;;;;;;5170564;27;20204;-76
2022/02/19 07:30:16;;;;;;;5.18;2.15;;;;;;;;;;5172339;27;20189;-75
2022/02/19 07:32:42;;;;;;;13.85;2.42;;;;;;;;;;5191376;27;20577;-76
2022/02/19 07:35:08;;;;;;;4.95;1.75;;;;;;;;;;5140339;27;20753;-75
2022/02/19 07:37:35;;;;;;;9.05;1.88;;;;;;;;;;5138261;27;20638;-76
2022/02/19 07:40:01;;;;;;;11.07;1.70;;;;;;;;;;5145720;27;20214;-75
2022/02/19 07:42:27;;;;;;;6.60;1.70;;;;;;;;;;5127434;27;20190;-75
2022/02/19 07:44:53;;;;;;;6.45;2.85;;;;;;;;;;5113911;27;20211;-75
2022/02/19 07:47:23;;;;;;;7.90;1.23;;;;;;;;;;5111668;28;20650;-75
2022/02/19 07:59:28;;;;;;;6.60;1.90;;;;;;;;;;5095066;28;20207;-75
2022/02/19 08:01:54;;;;;;;10.17;1.57;;;;;;;;;;5014942;28;20207;-75
2022/02/19 08:04:20;;;;;;;9.93;2.35;;;;;;;;;;5034252;28;20431;-76
2022/02/19 08:06:46;;;;;;;6.45;1.27;;;;;;;;;;5079702;28;20211;-75
2022/02/19 08:09:13;;;;;;;7.20;1.75;;;;;;;;;;5086076;28;20278;-74
2022/02/19 08:11:39;;;;;;;10.75;2.10;;;;;;;;;;5067018;28;20180;-74
2022/02/19 08:16:00;;;;;;;11.25;2.03;;;;;;;;;;5180705;27;20336;-76
2022/02/19 08:18:26;;;;;;;7.13;1.67;;;;;;;;;;5185602;27;20632;-77
2022/02/19 08:20:53;;;;;;;7.80;2.10;;;;;;;;;;5192045;27;20189;-76
2022/02/19 08:23:19;;;;;;;11.73;1.92;;;;;;;;;;5191452;27;20424;-77
2022/02/19 08:25:46;;;;;;;7.78;2.55;;;;;;;;;;5097355;27;20216;-75
2022/02/19 08:28:12;;;;;;;6.03;1.45;;;;;;;;;;5014260;28;20192;-76
2022/02/19 08:30:40;;;;;;;4.90;1.70;;;;;;;;;;4975326;28;20201;-76
2022/02/19 08:33:06;;;;;;;9.13;1.77;;;;;;;;;;4947538;28;20192;-75
2022/02/19 08:35:33;;;;;;;11.13;2.63;;;;;;;;;;4908023;28;20234;-77
2022/02/19 08:40:26;;;;;;;6.65;2.17;;;;;;;;;;5192940;27;20480;-74
2022/02/19 08:42:52;;;;;;;18.30;2.40;;;;;;;;;;5187457;27;20188;-76
2022/02/19 08:45:18;;;;;;;13.68;2.80;;;;;;;;;;5185792;27;20293;-75
2022/02/19 08:47:51;;;;;;;13.65;2.60;;;;;;;;;;5170731;27;20192;-77
2022/02/19 08:50:17;;;;;;;6.40;2.28;;;;;;;;;;5114312;28;20202;-77
2022/02/19 08:52:44;;;;;;;5.35;1.92;;;;;;;;;;5073957;28;20199;-75
2022/02/19 08:55:11;;;;;;;9.48;2.53;;;;;;;;;;5031628;28;20241;-76
2022/02/19 08:57:37;;;;;;;15.32;2.58;;;;;;;;;;5033701;28;20555;-76
2022/02/19 09:00:05;;;;;;;6.97;2.00;;;;;;;;;;5040773;28;20221;-77
2022/02/19 09:05:26;;;;;;;14.02;2.75;;;;;;;;;;5186069;27;20496;-76
2022/02/19 09:07:52;;;;;;;9.23;1.90;;;;;;;;;;5171264;27;20192;-78
2022/02/19 09:10:19;;;;;;;8.65;2.70;;;;;;;;;;5191887;27;20203;-77
2022/02/19 09:12:49;;;;;;;15.32;1.77;;;;;;;;;;5170983;27;20627;-77
2022/02/19 09:15:20;;;;;;;10.95;2.17;;;;;;;;;;5129388;27;20613;-77
2022/02/19 09:17:46;;;;;;;4.15;1.35;;;;;;;;;;5086632;28;20194;-77
2022/02/19 09:20:13;;;;;;;7.80;2.17;;;;;;;;;;5097960;27;20192;-78
2022/02/19 09:22:39;;;;;;;9.70;1.95;;;;;;;;;;5027523;28;20194;-78
2022/02/19 09:25:10;;;;;;;14.10;2.53;;;;;;;;;;5024793;28;20225;-77
2022/02/19 09:29:05;;;;;;;6.30;1.67;;;;;;;;;;5192950;27;20484;-77
2022/02/19 09:31:32;;;;;;;7.60;1.97;;;;;;;;;;5170723;27;20187;-77
2022/02/19 09:33:58;;;;;;;6.63;1.55;;;;;;;;;;5192063;27;20489;-78
2022/02/19 09:36:24;;;;;;;7.35;1.48;;;;;;;;;;5155478;27;20216;-76
2022/02/19 09:38:50;;;;;;;12.90;2.80;;;;;;;;;;5133201;27;20605;-78
2022/02/19 09:41:16;;;;;;;8.80;1.47;;;;;;;;;;5110732;28;20475;-77
2022/02/19 09:43:42;;;;;;;9.15;2.35;;;;;;;;;;5128610;27;20430;-77
2022/02/19 09:46:08;;;;;;;6.40;1.63;;;;;;;;;;5142877;27;20213;-74
2022/02/19 09:48:35;;;;;;;6.95;1.70;;;;;;;;;;5087253;27;20225;-76
2022/02/19 09:53:46;;;;;;;7.38;1.30;;;;;;;;;;5193135;27;20484;-76
2022/02/19 09:56:12;;;;;;;10.23;1.87;;;;;;;;;;5156794;27;20209;-76
2022/02/19 09:58:41;;;;;;;6.20;1.55;;;;;;;;;;5170653;27;20440;-77
2022/02/19 10:01:27;;;;;;;6.13;1.60;;;;;;;;;;5163301;27;20186;-76
2022/02/19 10:04:03;;;;;;;10.65;1.40;;;;;;;;;;5080776;28;20276;-77
2022/02/19 10:06:30;;;;;;;11.57;2.30;;;;;;;;;;5063564;28;20258;-76
2022/02/19 10:09:18;;;;;;;8.00;1.52;;;;;;;;;;5061582;28;20532;-76
2022/02/19 10:11:48;;;;;;;7.75;1.85;;;;;;;;;;5044701;28;20220;-76
2022/02/19 10:17:22;;;;;;;12.30;1.77;;;;;;;;;;5172108;27;20501;-77
2022/02/19 10:19:49;;;;;;;7.72;1.73;;;;;;;;;;5149512;27;20193;-76
2022/02/19 10:22:16;;;;;;;3.13;1.50;;;;;;;;;;5170645;27;20187;-77
2022/02/19 10:24:46;;;;;;;5.03;1.55;;;;;;;;;;5153289;27;20186;-78
2022/02/19 10:27:12;;;;;;;5.75;1.38;;;;;;;;;;5124056;27;20271;-76
2022/02/19 10:29:48;;;;;;;3.23;1.30;;;;;;;;;;5099169;28;20198;-77
2022/02/19 10:32:15;;;;;;;8.70;2.05;;;;;;;;;;5068095;28;20437;-76
2022/02/19 10:35:00;;;;;;;4.30;1.40;;;;;;;;;;5030705;28;20272;-77
2022/02/19 10:37:28;;;;;;;4.55;1.33;;;;;;;;;;4806978;29;20230;-78
2022/02/19 10:41:32;;;;;;;9.88;1.67;;;;;;;;;;5192884;27;20808;-79
2022/02/19 10:43:58;;;;;;;4.00;1.70;;;;;;;;;;5169857;27;20188;-76
2022/02/19 10:46:27;;;;;;;3.00;1.40;;;;;;;;;;5176328;27;20205;-77
2022/02/19 10:48:53;;;;;;;2.90;1.23;;;;;;;;;;5170302;27;20526;-79
2022/02/19 10:51:20;;;;;;;4.80;1.67;;;;;;;;;;5150874;27;20206;-77
2022/02/19 10:53:57;;;;;;;6.53;1.55;;;;;;;;;;5141849;27;20416;-79
2022/02/19 10:56:25;;;;;;;2.35;1.27;;;;;;;;;;5129496;27;20238;-77
2022/02/19 10:58:58;;;;;;;6.47;1.70;;;;;;;;;;5097155;28;20188;-79
2022/02/19 11:01:24;;;;;;;5.05;1.63;;;;;;;;;;5056900;28;20214;-78
2022/02/19 11:06:07;;;;;;;5.97;1.70;;;;;;;;;;5179532;27;20502;-77
2022/02/19 11:08:33;;;;;;;10.03;1.87;;;;;;;;;;5187873;27;20196;-77
2022/02/19 11:10:59;;;;;;;5.43;1.47;;;;;;;;;;5188117;27;20435;-78
2022/02/19 11:13:25;;;;;;;3.97;1.00;;;;;;;;;;5162122;27;20435;-76
2022/02/19 11:15:52;;;;;;;5.53;1.80;;;;;;;;;;5091413;28;20516;-78
2022/02/19 11:18:19;;;;;;;15.70;1.83;;;;;;;;;;5049191;28;20210;-78
2022/02/19 11:20:46;;;;;;;3.65;1.23;;;;;;;;;;4987651;28;20215;-76
2022/02/19 11:23:13;;;;;;;4.55;1.98;;;;;;;;;;4801657;29;20212;-76
2022/02/19 11:27:48;;;;;;;3.58;1.40;;;;;;;;;;5192933;27;20838;-78
2022/02/19 11:30:14;;;;;;;10.82;1.35;;;;;;;;;;5187639;27;20287;-77
2022/02/19 11:32:41;;;;;;;4.60;1.45;;;;;;;;;;5172189;27;20193;-79
2022/02/19 11:35:08;;;;;;;2.80;1.10;;;;;;;;;;5162016;27;20211;-77
2022/02/19 11:37:38;;;;;;;4.22;1.25;;;;;;;;;;5141049;27;20198;-78
2022/02/19 11:40:10;;;;;;;7.90;1.77;;;;;;;;;;5050987;28;20313;-78
2022/02/19 11:42:39;;;;;;;8.23;1.60;;;;;;;;;;4993519;28;20218;-78
2022/02/19 11:45:25;;;;;;;7.68;1.27;;;;;;;;;;4813415;29;20223;-78
2022/02/19 11:50:30;;;;;;;7.18;1.20;;;;;;;;;;5180401;27;20484;-78
2022/02/19 11:53:12;;;;;;;3.45;1.00;;;;;;;;;;5160543;27;20193;-78
2022/02/19 11:55:38;;;;;;;3.67;1.50;;;;;;;;;;5182224;27;20289;-78
2022/02/19 11:58:08;;;;;;;5.40;1.85;;;;;;;;;;5146220;27;20579;-77
2022/02/19 12:00:54;;;;;;;4.13;1.48;;;;;;;;;;5113222;27;20326;-80
2022/02/19 12:03:36;;;;;;;9.07;1.80;;;;;;;;;;5073104;28;20570;-79
2022/02/19 12:06:05;;;;;;;7.32;1.17;;;;;;;;;;4970818;28;20207;-79
2022/02/19 12:08:46;;;;;;;6.43;1.55;;;;;;;;;;4959760;28;20690;-77
2022/02/19 12:11:13;;;;;;;8.68;2.95;;;;;;;;;;4882891;29;20283;-81
2022/02/19 12:15:42;;;;;;;7.82;1.77;;;;;;;;;;5183355;27;21028;-78
2022/02/19 12:18:10;;;;;;;4.40;1.70;;;;;;;;;;5187679;27;20196;-77
2022/02/19 12:20:37;;;;;;;6.03;1.60;;;;;;;;;;5192760;27;20195;-79
2022/02/19 12:23:05;;;;;;;6.68;1.70;;;;;;;;;;5198051;27;20565;-79
2022/02/19 12:25:50;;;;;;;5.80;1.40;;;;;;;;;;5158090;27;20237;-77
2022/02/19 12:28:18;;;;;;;7.13;1.20;;;;;;;;;;5120595;27;20251;-77
2022/02/19 12:30:44;;;;;;;7.07;2.03;;;;;;;;;;5114387;28;20270;-78
2022/02/19 12:33:10;;;;;;;5.00;2.05;;;;;;;;;;4991455;28;20305;-79
2022/02/19 12:37:53;;;;;;;6.88;1.63;;;;;;;;;;5192840;27;20826;-78
2022/02/19 12:40:19;;;;;;;4.22;1.55;;;;;;;;;;5187623;27;20180;-75
2022/02/19 12:42:46;;;;;;;6.03;1.48;;;;;;;;;;5190741;27;20263;-77
2022/02/19 12:45:12;;;;;;;4.68;1.85;;;;;;;;;;5185807;27;20209;-75
2022/02/19 12:47:39;;;;;;;6.57;1.55;;;;;;;;;;5121760;27;20525;-77
2022/02/19 12:50:06;;;;;;;3.50;1.02;;;;;;;;;;5067032;28;20267;-75
2022/02/19 12:52:32;;;;;;;14.20;1.30;;;;;;;;;;5038312;28;20526;-77
2022/02/19 12:54:58;;;;;;;3.95;1.25;;;;;;;;;;4939646;28;20308;-75
2022/02/19 12:57:25;;;;;;;2.45;1.20;;;;;;;;;;4933107;28;20250;-77
2022/02/19 13:02:30;;;;;;;5.00;1.23;;;;;;;;;;5192329;27;20498;-77
2022/02/19 13:05:02;;;;;;;6.30;1.10;;;;;;;;;;5167711;27;20197;-78
2022/02/19 13:07:28;;;;;;;2.88;1.27;;;;;;;;;;5167638;27;20455;-78
2022/02/19 13:09:55;;;;;;;10.48;1.90;;;;;;;;;;5084607;28;20620;-80
2022/02/19 13:12:25;;;;;;;3.85;1.40;;;;;;;;;;5066577;28;20223;-78
2022/02/19 13:14:51;;;;;;;3.45;1.35;;;;;;;;;;5028846;28;20213;-80
2022/02/19 13:17:17;;;;;;;3.90;1.15;;;;;;;;;;5023378;28;20185;-80
2022/02/19 13:19:43;;;;;;;4.30;1.38;;;;;;;;;;4989885;28;20209;-77
2022/02/19 13:22:09;;;;;;;2.97;1.40;;;;;;;;;;4932154;28;20254;-76
2022/02/19 13:27:18;;;;;;;4.50;1.55;;;;;;;;;;5181879;27;20285;-76
2022/02/19 13:29:54;;;;;;;5.63;1.10;;;;;;;;;;5167821;27;20217;-78
2022/02/19 13:32:23;;;;;;;2.28;1.05;;;;;;;;;;5192198;27;20263;-79
2022/02/19 13:34:49;;;;;;;7.68;1.50;;;;;;;;;;5189592;27;20188;-78
2022/02/19 13:37:16;;;;;;;5.00;1.30;;;;;;;;;;5146772;27;20198;-78
2022/02/19 13:39:43;;;;;;;5.35;1.25;;;;;;;;;;5126116;27;20247;-79
2022/02/19 13:42:10;;;;;;;3.70;1.00;;;;;;;;;;5125874;27;20248;-79
2022/02/19 13:44:46;;;;;;;2.15;0.73;;;;;;;;;;5075048;28;20208;-80
2022/02/19 13:49:51;;;;;;;3.92;1.00;;;;;;;;;;5193195;27;20493;-79
2022/02/19 13:52:34;;;;;;;2.72;1.50;;;;;;;;;;5187903;27;20620;-78
2022/02/19 13:55:13;;;;;;;3.85;1.02;;;;;;;;;;5137174;27;20549;-79
2022/02/19 13:57:40;;;;;;;3.63;1.15;;;;;;;;;;5047964;28;20197;-79
2022/02/19 14:00:08;;;;;;;6.28;1.45;;;;;;;;;;5037260;28;20189;-78
2022/02/19 14:02:34;;;;;;;6.35;1.30;;;;;;;;;;4963831;28;20582;-78
2022/02/19 14:05:02;;;;;;;5.65;1.20;;;;;;;;;;5001776;28;20214;-78
2022/02/19 14:07:28;;;;;;;2.67;1.20;;;;;;;;;;4969932;28;20188;-79
2022/02/19 14:10:04;;;;;;;4.95;1.33;;;;;;;;;;4926333;28;20193;-78
2022/02/19 14:14:01;;;;;;;4.85;1.10;;;;;;;;;;5193074;27;20488;-78
2022/02/19 14:16:28;;;;;;;4.00;1.38;;;;;;;;;;5171242;27;20296;-79
2022/02/19 14:19:04;;;;;;;5.43;1.48;;;;;;;;;;5151416;27;20285;-79
2022/02/19 14:21:30;;;;;;;5.10;2.10;;;;;;;;;;5141102;27;20194;-77
2022/02/19 14:24:06;;;;;;;3.72;1.30;;;;;;;;;;5136270;27;20186;-77
2022/02/19 14:26:32;;;;;;;5.15;1.50;;;;;;;;;;5081698;28;20288;-77
2022/02/19 14:28:58;;;;;;;10.73;2.20;;;;;;;;;;5115250;28;20233;-80
2022/02/19 14:31:24;;;;;;;3.53;1.00;;;;;;;;;;5102781;28;20199;-80
2022/02/19 14:33:50;;;;;;;6.97;1.23;;;;;;;;;;5042536;28;20228;-78
2022/02/19 14:39:00;;;;;;;3.53;1.15;;;;;;;;;;5192664;27;20489;-80
2022/02/19 14:41:26;;;;;;;3.87;1.20;;;;;;;;;;5187340;27;20189;-79
2022/02/19 14:43:52;;;;;;;4.03;1.17;;;;;;;;;;5192019;27;20477;-78
2022/02/19 14:46:18;;;;;;;2.67;0.93;;;;;;;;;;5176360;27;20930;-77
2022/02/19 14:48:45;;;;;;;5.35;1.88;;;;;;;;;;5110449;28;20422;-79
2022/02/19 14:51:11;;;;;;;3.15;1.08;;;;;;;;;;5097454;28;20191;-79
2022/02/19 14:53:37;;;;;;;3.90;1.23;;;;;;;;;;5101773;28;20262;-81
2022/02/19 14:56:04;;;;;;;5.38;1.02;;;;;;;;;;5086962;27;20220;-76
2022/02/19 14:58:30;;;;;;;2.08;1.05;;;;;;;;;;4974457;28;20219;-78
2022/02/19 15:03:33;;;;;;;2.15;1.17;;;;;;;;;;5192838;27;20496;-79
2022/02/19 15:05:59;;;;;;;3.75;1.10;;;;;;;;;;5175701;27;20280;-77
2022/02/19 15:08:25;;;;;;;4.40;1.15;;;;;;;;;;5171012;27;20600;-79
2022/02/19 15:10:51;;;;;;;7.28;1.40;;;;;;;;;;5164527;27;20513;-78
2022/02/19 15:13:19;;;;;;;2.75;1.05;;;;;;;;;;5067882;28;20197;-79
2022/02/19 15:15:46;;;;;;;2.97;1.40;;;;;;;;;;5119674;28;20306;-80
2022/02/19 15:18:12;;;;;;;5.38;1.40;;;;;;;;;;5097686;28;20540;-77
2022/02/19 15:20:38;;;;;;;6.20;1.30;;;;;;;;;;5026922;28;20343;-79
2022/02/19 15:23:04;;;;;;;4.67;2.10;;;;;;;;;;4919678;28;20978;-78
2022/02/19 15:28:14;;;;;;;2.15;1.00;;;;;;;;;;5192749;27;20496;-79
2022/02/19 15:30:40;;;;;;;7.90;2.83;;;;;;;;;;5187620;27;20181;-78
2022/02/19 15:33:06;;;;;;;4.50;1.20;;;;;;;;;;5172690;27;20426;-79
2022/02/19 15:35:32;;;;;;;5.80;1.33;;;;;;;;;;5183175;27;20438;-80
2022/02/19 15:37:58;;;;;;;1.20;1.10;;;;;;;;;;5119699;27;20426;-78
2022/02/19 15:40:24;;;;;;;4.20;1.10;;;;;;;;;;5074949;28;20414;-80
2022/02/19 15:42:50;;;;;;;5.70;1.37;;;;;;;;;;5029568;28;20442;-78
2022/02/19 15:45:16;;;;;;;10.05;1.30;;;;;;;;;;5020893;28;20920;-79
2022/02/19 15:47:42;;;;;;;3.53;1.20;;;;;;;;;;4918156;29;20226;-78
2022/02/19 15:52:45;;;;;;;5.78;1.13;;;;;;;;;;5192899;27;20489;-78
2022/02/19 15:55:11;;;;;;;3.33;1.60;;;;;;;;;;5182729;27;20209;-77
2022/02/19 15:57:37;;;;;;;3.30;1.17;;;;;;;;;;5171286;27;20419;-79
2022/02/19 16:00:06;;;;;;;5.97;1.20;;;;;;;;;;5147103;27;20639;-78
2022/02/19 16:02:32;;;;;;;2.95;1.20;;;;;;;;;;5126268;28;20227;-79
2022/02/19 16:04:58;;;;;;;2.07;0.90;;;;;;;;;;5100917;28;20683;-78
2022/02/19 16:07:24;;;;;;;3.27;1.13;;;;;;;;;;5029502;28;20435;-79
2022/02/19 16:09:50;;;;;;;5.40;1.17;;;;;;;;;;4979127;28;20443;-79
2022/02/19 16:12:16;;;;;;;4.05;1.73;;;;;;;;;;4969358;28;20475;-79
2022/02/19 16:17:11;;;;;;;2.95;1.10;;;;;;;;;;5193148;27;20287;-78
2022/02/19 16:19:37;;;;;;;2.27;0.77;;;;;;;;;;5187771;27;20546;-79
2022/02/19 16:22:03;;;;;;;5.45;1.00;;;;;;;;;;5192301;27;20422;-79
2022/02/19 16:24:29;;;;;;;3.30;1.10;;;;;;;;;;5191705;27;20652;-80
2022/02/19 16:26:55;;;;;;;7.50;1.30;;;;;;;;;;5107766;27;20711;-79
2022/02/19 16:29:21;;;;;;;2.25;1.33;;;;;;;;;;5026496;28;20632;-76